Time;durP1;ratioP1;P1;durP2;ratioP2;P2;SDS_P1;SDS_P2;PMS_P1;PMS_P2;Temp;Humidity;BMP_temperature;BMP_pressure;BME280_temperature;BME280_humidity;BME280_pressure;Samples;Min_cycle;Max_cycle;Signal;HPM_P1;HPM_P2
2021/08/11 00:03:01;;;;;;;;;;;15.70;99.90;;;;;;6304637;28;20398;-71
2021/08/11 00:06:03;;;;;;;;;;;15.70;99.90;;;;;;6310527;28;20017;-71
2021/08/11 00:09:04;;;;;;;;;;;15.70;99.90;;;;;;6308042;28;19972;-71
2021/08/11 00:12:06;;;;;;;;;;;15.70;99.90;;;;;;6313312;28;20023;-71
2021/08/11 00:15:08;;;;;;;;;;;15.70;99.90;;;;;;6302939;28;20497;-71
2021/08/11 00:18:10;;;;;;;;;;;15.60;99.90;;;;;;6310954;28;19972;-71
2021/08/11 00:21:12;;;;;;;;;;;15.60;99.90;;;;;;6303938;28;20488;-72
2021/08/11 00:24:13;;;;;;;;;;;15.50;99.90;;;;;;6313721;28;20427;-71
2021/08/11 00:27:15;;;;;;;;;;;15.60;99.90;;;;;;6315956;28;20450;-71
2021/08/11 00:30:17;;;;;;;;;;;15.60;99.90;;;;;;6315007;28;19972;-71
2021/08/11 00:33:19;;;;;;;;;;;15.50;99.90;;;;;;6313584;28;19984;-72
2021/08/11 00:36:21;;;;;;;;;;;15.50;99.90;;;;;;6313728;28;20385;-72
2021/08/11 00:39:22;;;;;;;;;;;15.50;99.90;;;;;;6314044;28;19976;-72
2021/08/11 00:42:27;;;;;;;;;;;15.40;99.90;;;;;;6314067;28;19976;-71
2021/08/11 00:45:29;;;;;;;;;;;15.40;99.90;;;;;;6318227;28;19996;-72
2021/08/11 00:48:30;;;;;;;;;;;15.40;99.90;;;;;;6314053;28;20152;-71
2021/08/11 00:51:32;;;;;;;;;;;15.30;99.90;;;;;;6310673;28;19979;-71
2021/08/11 00:54:35;;;;;;;;;;;15.30;99.90;;;;;;6317044;28;20549;-71
2021/08/11 00:57:37;;;;;;;;;;;15.30;99.90;;;;;;6299726;28;19996;-71
2021/08/11 01:00:44;;;;;;;;;;;15.20;99.90;;;;;;6301197;28;19976;-72
2021/08/11 01:03:46;;;;;;;;;;;15.20;99.90;;;;;;6305655;28;20082;-72
2021/08/11 01:06:48;;;;;;;;;;;15.20;99.90;;;;;;6305745;28;19977;-71
2021/08/11 01:09:50;;;;;;;;;;;15.20;99.90;;;;;;6305701;28;19976;-71
2021/08/11 01:12:52;;;;;;;;;;;15.20;99.90;;;;;;6315903;28;20497;-71
2021/08/11 01:15:55;;;;;;;;;;;15.10;99.90;;;;;;6308780;28;20375;-71
2021/08/11 01:18:56;;;;;;;;;;;15.10;99.90;;;;;;6305366;28;20339;-72
2021/08/11 01:22:02;;;;;;;;;;;15.10;99.90;;;;;;6299508;28;20055;-72
2021/08/11 01:25:33;;;;;;;;;;;15.00;99.90;;;;;;6315863;28;19973;-71
2021/08/11 01:28:53;;;;;;;;;;;15.00;99.90;;;;;;6297837;28;20012;-72
2021/08/11 01:32:03;;;;;;;;;;;15.00;99.90;;;;;;6306697;28;19980;-72
2021/08/11 01:35:07;;;;;;;;;;;14.90;99.90;;;;;;6313237;28;20000;-71
2021/08/11 01:38:11;;;;;;;;;;;14.90;99.90;;;;;;6320993;28;19979;-71
2021/08/11 01:41:13;;;;;;;;;;;14.80;99.90;;;;;;6300888;28;20430;-72
2021/08/11 01:44:17;;;;;;;;;;;14.80;99.90;;;;;;6302279;28;19980;-72
2021/08/11 01:47:22;;;;;;;;;;;14.80;99.90;;;;;;6346281;27;19976;-72
2021/08/11 01:50:24;;;;;;;;;;;14.80;99.90;;;;;;6305065;28;20386;-72
2021/08/11 01:53:27;;;;;;;;;;;14.80;99.90;;;;;;6308722;28;20414;-71
2021/08/11 01:56:29;;;;;;;;;;;14.80;99.90;;;;;;6300050;28;20079;-71
2021/08/11 01:59:31;;;;;;;;;;;14.80;99.90;;;;;;6297210;28;20064;-72
2021/08/11 02:02:35;;;;;;;;;;;14.70;99.90;;;;;;6291862;28;19980;-72
2021/08/11 02:05:37;;;;;;;;;;;14.70;99.90;;;;;;6311598;28;19976;-71
2021/08/11 02:08:43;;;;;;;;;;;14.70;99.90;;;;;;6318716;28;19983;-72
2021/08/11 02:11:45;;;;;;;;;;;14.60;99.90;;;;;;6302253;28;19995;-71
2021/08/11 02:14:47;;;;;;;;;;;14.60;99.90;;;;;;6313557;28;19996;-72
2021/08/11 02:17:49;;;;;;;;;;;14.60;99.90;;;;;;6306933;28;20492;-71
2021/08/11 02:20:51;;;;;;;;;;;14.60;99.90;;;;;;6295305;28;20064;-71
2021/08/11 02:23:53;;;;;;;;;;;14.60;99.90;;;;;;6315581;27;19983;-72
2021/08/11 02:26:54;;;;;;;;;;;14.50;99.90;;;;;;6312835;28;20021;-71
2021/08/11 02:30:00;;;;;;;;;;;14.60;99.90;;;;;;6302302;28;20473;-72
2021/08/11 02:33:08;;;;;;;;;;;14.50;99.90;;;;;;6305723;28;19973;-72
2021/08/11 02:36:36;;;;;;;;;;;14.50;99.90;;;;;;6307008;28;20054;-72
2021/08/11 02:39:41;;;;;;;;;;;14.50;99.90;;;;;;6301153;28;19991;-71
2021/08/11 02:42:44;;;;;;;;;;;14.50;99.90;;;;;;6299266;28;20323;-72
2021/08/11 02:45:49;;;;;;;;;;;14.40;99.90;;;;;;6308214;28;19983;-71
2021/08/11 02:48:54;;;;;;;;;;;14.40;99.90;;;;;;6307072;28;19945;-72
2021/08/11 02:51:57;;;;;;;;;;;14.40;99.90;;;;;;6303101;28;20005;-72
2021/08/11 02:54:59;;;;;;;;;;;14.30;99.90;;;;;;6306825;28;19992;-72
2021/08/11 02:58:01;;;;;;;;;;;14.40;99.90;;;;;;6310055;28;19982;-72
2021/08/11 03:01:03;;;;;;;;;;;14.30;99.90;;;;;;6300756;28;20026;-71
2021/08/11 03:04:05;;;;;;;;;;;14.30;99.90;;;;;;6311574;28;19972;-72
2021/08/11 03:07:07;;;;;;;;;;;14.30;99.90;;;;;;6296554;28;20046;-72
2021/08/11 03:10:09;;;;;;;;;;;14.30;99.90;;;;;;6304296;28;20072;-72
2021/08/11 03:13:12;;;;;;;;;;;14.30;99.90;;;;;;6300323;28;20385;-72
2021/08/11 03:16:14;;;;;;;;;;;14.30;99.90;;;;;;6306448;28;19988;-71
2021/08/11 03:19:16;;;;;;;;;;;14.30;99.90;;;;;;6300331;28;20516;-71
2021/08/11 03:22:17;;;;;;;;;;;14.30;99.90;;;;;;6303062;28;19999;-71
2021/08/11 03:25:19;;;;;;;;;;;14.20;99.90;;;;;;6310787;28;19984;-72
2021/08/11 03:28:21;;;;;;;;;;;14.20;99.90;;;;;;6316666;28;19983;-71
2021/08/11 03:31:22;;;;;;;;;;;14.20;99.90;;;;;;6305718;28;19972;-72
2021/08/11 03:34:24;;;;;;;;;;;14.20;99.90;;;;;;6333027;27;20033;-71
2021/08/11 03:37:26;;;;;;;;;;;14.10;99.90;;;;;;6315231;28;20467;-71
2021/08/11 03:40:27;;;;;;;;;;;14.10;99.90;;;;;;6313299;28;19969;-71
2021/08/11 03:43:29;;;;;;;;;;;14.10;99.90;;;;;;6311835;28;19979;-72
2021/08/11 03:46:32;;;;;;;;;;;14.10;99.90;;;;;;6309866;28;20438;-72
2021/08/11 03:49:34;;;;;;;;;;;14.00;99.90;;;;;;6307604;28;19980;-72
2021/08/11 03:52:36;;;;;;;;;;;14.00;99.90;;;;;;6322839;28;19983;-72
2021/08/11 03:55:37;;;;;;;;;;;14.00;99.90;;;;;;6305236;28;19987;-72
2021/08/11 03:58:39;;;;;;;;;;;14.00;99.90;;;;;;6324465;28;19975;-72
2021/08/11 04:01:41;;;;;;;;;;;14.00;99.90;;;;;;6305346;28;19984;-71
2021/08/11 04:04:42;;;;;;;;;;;14.00;99.90;;;;;;6309734;28;19972;-71
2021/08/11 04:07:44;;;;;;;;;;;14.00;99.90;;;;;;6318549;28;20029;-71
2021/08/11 04:10:46;;;;;;;;;;;14.00;99.90;;;;;;6308007;28;20325;-72
2021/08/11 04:13:48;;;;;;;;;;;14.00;99.90;;;;;;6303697;28;20038;-71
2021/08/11 04:16:50;;;;;;;;;;;14.00;99.90;;;;;;6305248;28;20068;-72
2021/08/11 04:19:52;;;;;;;;;;;14.00;99.90;;;;;;6298606;28;20369;-72
2021/08/11 04:22:53;;;;;;;;;;;14.00;99.90;;;;;;6306563;28;19976;-72
2021/08/11 04:25:55;;;;;;;;;;;14.00;99.90;;;;;;6312897;28;19972;-71
2021/08/11 04:28:57;;;;;;;;;;;14.00;99.90;;;;;;6315228;28;19976;-71
2021/08/11 04:31:58;;;;;;;;;;;14.00;99.90;;;;;;6311197;28;20338;-71
2021/08/11 04:35:00;;;;;;;;;;;14.00;99.90;;;;;;6301359;28;20316;-72
2021/08/11 04:38:02;;;;;;;;;;;14.00;99.90;;;;;;6318838;28;20346;-72
2021/08/11 04:41:03;;;;;;;;;;;13.90;99.90;;;;;;6308715;28;19987;-72
2021/08/11 04:44:10;;;;;;;;;;;14.00;99.90;;;;;;6306980;28;20446;-71
2021/08/11 04:47:11;;;;;;;;;;;14.00;99.90;;;;;;6306412;28;20324;-71
2021/08/11 04:50:13;;;;;;;;;;;14.00;99.90;;;;;;6305358;28;19987;-71
2021/08/11 04:53:15;;;;;;;;;;;14.00;99.90;;;;;;6311086;28;20358;-72
2021/08/11 04:56:18;;;;;;;;;;;14.10;99.90;;;;;;6309030;28;20355;-72
2021/08/11 04:59:20;;;;;;;;;;;14.10;99.90;;;;;;6310678;28;19987;-71
2021/08/11 05:02:22;;;;;;;;;;;14.20;99.90;;;;;;6296712;28;20039;-72
2021/08/11 05:05:24;;;;;;;;;;;14.20;99.90;;;;;;6305263;28;20284;-71
2021/08/11 05:08:25;;;;;;;;;;;14.20;99.90;;;;;;6304963;28;20415;-71
2021/08/11 05:11:27;;;;;;;;;;;14.30;99.90;;;;;;6308011;28;20090;-71
2021/08/11 05:14:29;;;;;;;;;;;14.30;99.90;;;;;;6309208;28;19992;-71
2021/08/11 05:17:31;;;;;;;;;;;14.40;99.90;;;;;;6300230;28;20534;-72
2021/08/11 05:20:32;;;;;;;;;;;14.40;99.90;;;;;;6306367;28;20006;-71
2021/08/11 05:23:34;;;;;;;;;;;14.50;99.90;;;;;;6311789;28;19988;-71
2021/08/11 05:26:36;;;;;;;;;;;14.50;99.90;;;;;;6304829;28;20006;-71
2021/08/11 05:29:39;;;;;;;;;;;14.60;99.90;;;;;;6308488;28;19976;-71
2021/08/11 05:32:41;;;;;;;;;;;14.70;99.90;;;;;;6306813;28;19980;-72
2021/08/11 05:35:43;;;;;;;;;;;14.80;99.90;;;;;;6308052;28;20373;-71
2021/08/11 05:38:45;;;;;;;;;;;14.80;99.90;;;;;;6313162;28;20060;-71
2021/08/11 05:41:47;;;;;;;;;;;14.90;99.90;;;;;;6314235;28;20041;-72
2021/08/11 05:44:50;;;;;;;;;;;14.90;99.90;;;;;;6314172;28;20423;-72
2021/08/11 05:47:52;;;;;;;;;;;15.00;99.90;;;;;;6314675;28;20423;-71
2021/08/11 05:50:53;;;;;;;;;;;15.10;99.90;;;;;;6315184;28;19980;-70
2021/08/11 05:53:55;;;;;;;;;;;15.20;99.90;;;;;;6318244;28;19995;-69
2021/08/11 05:56:56;;;;;;;;;;;15.30;99.90;;;;;;6310224;28;20031;-69
2021/08/11 05:59:58;;;;;;;;;;;15.40;99.90;;;;;;6313215;28;19972;-70
2021/08/11 06:03:00;;;;;;;;;;;15.50;99.90;;;;;;6314048;28;19983;-69
2021/08/11 06:06:01;;;;;;;;;;;15.70;99.90;;;;;;6310051;28;20481;-69
2021/08/11 06:09:03;;;;;;;;;;;15.80;99.90;;;;;;6313459;28;20018;-70
2021/08/11 06:12:05;;;;;;;;;;;15.90;99.90;;;;;;6307257;28;19992;-71
2021/08/11 06:15:07;;;;;;;;;;;16.00;99.90;;;;;;6312668;28;19972;-71
2021/08/11 06:18:09;;;;;;;;;;;16.00;99.90;;;;;;6314295;28;19999;-71
2021/08/11 06:21:10;;;;;;;;;;;16.00;99.90;;;;;;6304591;28;20332;-71
2021/08/11 06:24:12;;;;;;;;;;;16.00;99.90;;;;;;6319893;28;19979;-71
2021/08/11 06:27:13;;;;;;;;;;;16.00;99.90;;;;;;6315854;28;19982;-71
2021/08/11 06:30:15;;;;;;;;;;;16.10;99.90;;;;;;6349892;27;19979;-71
2021/08/11 06:33:17;;;;;;;;;;;16.20;99.90;;;;;;6316740;28;20001;-71
2021/08/11 06:36:19;;;;;;;;;;;16.30;99.90;;;;;;6309984;28;20002;-71
2021/08/11 06:39:21;;;;;;;;;;;16.40;99.90;;;;;;6313688;28;20002;-71
2021/08/11 06:42:22;;;;;;;;;;;16.50;99.90;;;;;;6321251;28;19983;-71
2021/08/11 06:45:24;;;;;;;;;;;16.60;99.90;;;;;;6302572;28;20327;-71
2021/08/11 06:48:26;;;;;;;;;;;16.60;99.90;;;;;;6315452;28;19983;-71
2021/08/11 06:51:27;;;;;;;;;;;16.80;99.90;;;;;;6312390;28;20362;-71
2021/08/11 06:54:29;;;;;;;;;;;16.90;99.90;;;;;;6312856;28;19987;-71
2021/08/11 06:57:31;;;;;;;;;;;17.00;99.90;;;;;;6299758;28;19992;-71
2021/08/11 07:00:32;;;;;;;;;;;17.10;99.90;;;;;;6300495;28;19976;-71
2021/08/11 07:03:34;;;;;;;;;;;17.20;99.90;;;;;;6311179;28;20059;-71
2021/08/11 07:06:38;;;;;;;;;;;17.30;99.90;;;;;;6314994;28;20393;-71
2021/08/11 07:09:39;;;;;;;;;;;17.40;99.90;;;;;;6308034;28;20954;-71
2021/08/11 07:12:42;;;;;;;;;;;17.40;99.90;;;;;;6312028;28;20049;-71
2021/08/11 07:15:45;;;;;;;;;;;17.50;99.90;;;;;;6312244;28;21309;-71
2021/08/11 07:18:47;;;;;;;;;;;17.50;99.90;;;;;;6310375;28;19985;-72
2021/08/11 07:21:48;;;;;;;;;;;17.60;99.90;;;;;;6310379;28;20056;-71
2021/08/11 07:24:50;;;;;;;;;;;17.60;99.90;;;;;;6308339;28;20408;-71
2021/08/11 07:27:52;;;;;;;;;;;17.60;99.90;;;;;;6311670;28;19984;-71
2021/08/11 07:30:53;;;;;;;;;;;17.70;99.90;;;;;;6311417;28;20412;-71
2021/08/11 07:33:55;;;;;;;;;;;17.70;99.90;;;;;;6313530;28;19983;-71
2021/08/11 07:36:57;;;;;;;;;;;17.80;99.90;;;;;;6307836;28;19992;-71
2021/08/11 07:39:59;;;;;;;;;;;17.80;99.90;;;;;;6311384;28;19984;-71
2021/08/11 07:43:01;;;;;;;;;;;17.90;99.90;;;;;;6317740;28;20420;-71
2021/08/11 07:46:03;;;;;;;;;;;18.00;99.90;;;;;;6316941;28;20012;-71
2021/08/11 07:49:08;;;;;;;;;;;18.10;99.90;;;;;;6309869;28;20565;-71
2021/08/11 07:52:09;;;;;;;;;;;18.10;99.90;;;;;;6313590;28;19976;-71
2021/08/11 07:55:11;;;;;;;;;;;18.20;99.90;;;;;;6312364;28;19979;-71
2021/08/11 07:58:13;;;;;;;;;;;18.20;99.90;;;;;;6312941;28;19996;-71
2021/08/11 08:01:14;;;;;;;;;;;18.30;99.90;;;;;;6308731;28;19976;-71
2021/08/11 08:04:16;;;;;;;;;;;18.30;99.90;;;;;;6312153;28;20066;-71
2021/08/11 08:07:18;;;;;;;;;;;18.30;99.90;;;;;;6315126;28;20408;-71
2021/08/11 08:10:20;;;;;;;;;;;18.40;99.90;;;;;;6309222;28;19972;-72
2021/08/11 08:13:21;;;;;;;;;;;18.50;99.90;;;;;;6310990;28;20049;-71
2021/08/11 08:16:23;;;;;;;;;;;18.60;99.90;;;;;;6312917;28;20002;-71
2021/08/11 08:19:25;;;;;;;;;;;18.70;99.90;;;;;;6308375;28;19983;-71
2021/08/11 08:22:27;;;;;;;;;;;18.70;99.90;;;;;;6318123;28;19980;-70
2021/08/11 08:25:29;;;;;;;;;;;18.70;99.90;;;;;;6320541;28;19983;-71
2021/08/11 08:28:30;;;;;;;;;;;18.80;99.90;;;;;;6329897;28;20404;-71
2021/08/11 08:31:32;;;;;;;;;;;18.80;99.90;;;;;;6310013;28;19980;-71
2021/08/11 08:34:34;;;;;;;;;;;18.80;99.90;;;;;;6313213;28;19985;-71
2021/08/11 08:37:37;;;;;;;;;;;18.90;99.90;;;;;;6315669;28;20041;-71
2021/08/11 08:40:39;;;;;;;;;;;18.90;99.90;;;;;;6315840;28;19987;-71
2021/08/11 08:43:40;;;;;;;;;;;18.80;99.90;;;;;;6308577;28;19976;-71
2021/08/11 08:46:42;;;;;;;;;;;18.90;99.90;;;;;;6307101;28;19979;-71
2021/08/11 08:49:45;;;;;;;;;;;18.80;99.90;;;;;;6313075;28;19980;-71
2021/08/11 08:52:47;;;;;;;;;;;18.80;99.90;;;;;;6313314;28;19979;-71
2021/08/11 08:55:50;;;;;;;;;;;18.80;99.90;;;;;;6315593;28;19972;-70
2021/08/11 08:58:52;;;;;;;;;;;18.80;99.90;;;;;;6312290;28;20003;-70
2021/08/11 09:01:54;;;;;;;;;;;18.80;99.90;;;;;;6311302;28;19976;-71
2021/08/11 09:04:55;;;;;;;;;;;18.80;99.90;;;;;;6317997;28;19943;-71
2021/08/11 09:07:57;;;;;;;;;;;18.90;99.90;;;;;;6318555;28;20086;-71
2021/08/11 09:11:12;;;;;;;;;;;18.90;99.90;;;;;;6304920;28;20144;-72
2021/08/11 09:14:19;;;;;;;;;;;18.90;99.90;;;;;;6308764;28;19977;-71
2021/08/11 09:17:38;;;;;;;;;;;19.00;99.90;;;;;;6309361;28;20045;-71
2021/08/11 09:20:39;;;;;;;;;;;19.00;99.90;;;;;;6301650;28;19981;-72
2021/08/11 09:23:42;;;;;;;;;;;19.10;99.90;;;;;;6320266;28;19980;-71
2021/08/11 09:26:44;;;;;;;;;;;19.20;99.90;;;;;;6308469;28;19976;-71
2021/08/11 09:30:04;;;;;;;;;;;19.30;99.90;;;;;;6310571;28;20335;-71
2021/08/11 09:33:06;;;;;;;;;;;19.30;99.90;;;;;;6310948;28;20378;-71
2021/08/11 09:36:12;;;;;;;;;;;19.40;99.90;;;;;;6315807;28;19976;-71
2021/08/11 09:39:14;;;;;;;;;;;19.50;99.90;;;;;;6318326;28;19984;-71
2021/08/11 09:42:15;;;;;;;;;;;19.50;99.90;;;;;;6301897;28;20474;-71
2021/08/11 09:45:17;;;;;;;;;;;19.60;99.90;;;;;;6311951;28;19972;-72
2021/08/11 09:48:19;;;;;;;;;;;19.70;99.90;;;;;;6314482;28;20411;-71
2021/08/11 09:51:21;;;;;;;;;;;19.70;99.90;;;;;;6310006;28;19999;-71
2021/08/11 09:54:26;;;;;;;;;;;19.80;99.90;;;;;;6316083;28;19978;-71
2021/08/11 09:57:28;;;;;;;;;;;19.90;99.90;;;;;;6315433;28;19992;-72
2021/08/11 10:00:39;;;;;;;;;;;20.00;99.90;;;;;;6308677;28;19951;-71
2021/08/11 10:03:55;;;;;;;;;;;20.00;99.90;;;;;;6339518;27;20020;-71
2021/08/11 10:07:07;;;;;;;;;;;20.10;99.90;;;;;;6314817;28;19981;-71
2021/08/11 10:10:13;;;;;;;;;;;20.20;99.90;;;;;;6308066;28;19987;-71
2021/08/11 10:13:19;;;;;;;;;;;20.20;99.90;;;;;;6310693;28;19943;-71
2021/08/11 10:16:21;;;;;;;;;;;20.20;99.90;;;;;;6314517;28;20027;-72
2021/08/11 10:19:24;;;;;;;;;;;20.20;99.90;;;;;;6303644;28;20440;-72
2021/08/11 10:22:26;;;;;;;;;;;20.20;99.90;;;;;;6308235;28;19977;-72
2021/08/11 10:25:28;;;;;;;;;;;20.30;99.90;;;;;;6309450;28;19987;-71
2021/08/11 10:28:30;;;;;;;;;;;20.40;99.90;;;;;;6317577;28;19999;-71
2021/08/11 10:31:32;;;;;;;;;;;20.40;99.90;;;;;;6305303;28;19976;-71
2021/08/11 10:34:34;;;;;;;;;;;20.50;99.90;;;;;;6308880;28;20501;-71
2021/08/11 10:37:36;;;;;;;;;;;20.50;99.90;;;;;;6309690;28;19992;-71
2021/08/11 10:40:39;;;;;;;;;;;20.60;99.90;;;;;;6308391;28;19987;-71
2021/08/11 10:43:43;;;;;;;;;;;20.60;99.90;;;;;;6323600;28;19976;-73
2021/08/11 10:46:45;;;;;;;;;;;20.70;99.90;;;;;;6318070;28;19975;-71
2021/08/11 10:49:54;;;;;;;;;;;20.80;99.90;;;;;;6316666;28;19972;-71
2021/08/11 10:53:06;;;;;;;;;;;20.80;99.90;;;;;;6310547;28;20013;-71
2021/08/11 10:56:07;;;;;;;;;;;20.80;99.90;;;;;;6310092;28;19977;-72
2021/08/11 10:59:21;;;;;;;;;;;20.90;99.90;;;;;;6312265;28;20492;-71
2021/08/11 11:02:41;;;;;;;;;;;20.90;99.90;;;;;;6304914;28;20431;-71
2021/08/11 11:05:49;;;;;;;;;;;20.90;99.90;;;;;;6310139;28;19980;-71
2021/08/11 11:09:10;;;;;;;;;;;21.00;99.90;;;;;;6309811;28;19976;-71
2021/08/11 11:12:18;;;;;;;;;;;21.00;99.90;;;;;;6320086;28;20003;-71
2021/08/11 11:15:39;;;;;;;;;;;21.10;99.90;;;;;;6313437;28;19972;-72
2021/08/11 11:19:02;;;;;;;;;;;21.20;99.90;;;;;;6301244;28;19997;-72
2021/08/11 11:22:23;;;;;;;;;;;21.30;99.90;;;;;;6311356;28;20492;-71
2021/08/11 11:25:44;;;;;;;;;;;21.30;99.90;;;;;;6306052;28;20032;-72
2021/08/11 11:28:54;;;;;;;;;;;21.40;99.90;;;;;;6316704;28;20442;-72
2021/08/11 11:31:56;;;;;;;;;;;21.50;99.90;;;;;;6302518;28;19976;-71
2021/08/11 11:35:17;;;;;;;;;;;21.50;99.90;;;;;;6308171;28;20025;-72
2021/08/11 11:38:19;;;;;;;;;;;21.50;99.90;;;;;;6315249;28;20332;-72
2021/08/11 11:41:23;;;;;;;;;;;21.60;99.90;;;;;;6306531;28;19976;-72
2021/08/11 11:44:43;;;;;;;;;;;21.60;99.90;;;;;;6336972;27;20075;-72
2021/08/11 11:47:58;;;;;;;;;;;21.60;99.90;;;;;;6309400;28;19976;-73
2021/08/11 11:51:03;;;;;;;;;;;21.70;99.90;;;;;;6321703;28;20324;-72
2021/08/11 11:54:05;;;;;;;;;;;21.70;99.90;;;;;;6322427;28;19972;-72
2021/08/11 11:57:07;;;;;;;;;;;21.70;99.90;;;;;;6318876;28;20504;-71
2021/08/11 12:00:15;;;;;;;;;;;21.70;99.90;;;;;;6314100;28;19995;-71
2021/08/11 12:03:19;;;;;;;;;;;21.70;99.90;;;;;;6310478;28;19979;-71
2021/08/11 12:06:37;;;;;;;;;;;21.70;99.90;;;;;;6316630;28;20067;-72
2021/08/11 12:09:45;;;;;;;;;;;21.80;99.90;;;;;;6314217;28;20074;-72
2021/08/11 12:12:59;;;;;;;;;;;21.80;99.90;;;;;;6331330;28;20000;-71
2021/08/11 12:16:00;;;;;;;;;;;21.80;99.90;;;;;;6314344;28;19980;-71
2021/08/11 12:19:12;;;;;;;;;;;21.90;99.90;;;;;;6304908;28;20032;-72
2021/08/11 12:22:28;;;;;;;;;;;21.90;99.90;;;;;;6306785;28;19984;-72
2021/08/11 12:25:30;;;;;;;;;;;21.80;99.90;;;;;;6316437;28;19988;-71
2021/08/11 12:28:37;;;;;;;;;;;21.90;99.90;;;;;;6317731;28;19972;-71
2021/08/11 12:31:40;;;;;;;;;;;21.90;99.90;;;;;;6310368;28;20423;-72
2021/08/11 12:34:44;;;;;;;;;;;21.90;99.90;;;;;;6317537;28;19982;-72
2021/08/11 12:37:46;;;;;;;;;;;22.00;99.90;;;;;;6319534;28;20015;-71
2021/08/11 12:40:48;;;;;;;;;;;22.10;99.90;;;;;;6313473;28;20030;-72
2021/08/11 12:43:51;;;;;;;;;;;22.10;99.90;;;;;;6343995;27;20024;-72
2021/08/11 12:46:54;;;;;;;;;;;22.20;99.90;;;;;;6307513;28;19976;-72
2021/08/11 12:50:14;;;;;;;;;;;22.20;99.90;;;;;;6310507;28;20025;-71
2021/08/11 12:53:23;;;;;;;;;;;22.30;99.90;;;;;;6313830;28;19977;-71
2021/08/11 12:56:25;;;;;;;;;;;22.30;99.90;;;;;;6309741;28;20416;-72
2021/08/11 12:59:45;;;;;;;;;;;22.30;99.90;;;;;;6314734;28;20003;-71
2021/08/11 13:02:58;;;;;;;;;;;22.30;99.90;;;;;;6315154;28;19985;-71
2021/08/11 13:06:00;;;;;;;;;;;22.40;99.90;;;;;;6312466;28;20530;-72
2021/08/11 13:09:02;;;;;;;;;;;22.30;99.90;;;;;;6318329;28;20478;-72
2021/08/11 13:12:05;;;;;;;;;;;22.40;99.90;;;;;;6305150;28;20000;-72
2021/08/11 13:15:26;;;;;;;;;;;22.40;99.90;;;;;;6315596;28;20416;-72
2021/08/11 13:18:28;;;;;;;;;;;22.50;99.90;;;;;;6312104;28;20036;-72
2021/08/11 13:21:39;;;;;;;;;;;22.50;99.90;;;;;;6312801;28;19983;-72
2021/08/11 13:24:41;;;;;;;;;;;22.50;99.90;;;;;;6308331;28;20446;-71
2021/08/11 13:27:43;;;;;;;;;;;22.50;99.90;;;;;;6316183;28;19980;-72
2021/08/11 13:30:46;;;;;;;;;;;22.50;99.90;;;;;;6305839;28;19972;-72
2021/08/11 13:33:47;;;;;;;;;;;22.50;99.90;;;;;;6313693;28;19979;-72
2021/08/11 13:36:49;;;;;;;;;;;22.50;99.90;;;;;;6314668;28;19976;-72
2021/08/11 13:39:51;;;;;;;;;;;22.50;99.90;;;;;;6309196;28;20329;-72
2021/08/11 13:42:52;;;;;;;;;;;22.50;99.90;;;;;;6314681;28;19972;-71
2021/08/11 13:45:55;;;;;;;;;;;22.50;99.90;;;;;;6315974;28;19946;-72
2021/08/11 13:48:56;;;;;;;;;;;22.60;99.90;;;;;;6311967;28;20001;-71
2021/08/11 13:51:58;;;;;;;;;;;22.60;99.90;;;;;;6309136;28;20396;-72
2021/08/11 13:55:00;;;;;;;;;;;22.60;99.90;;;;;;6315860;28;19984;-72
2021/08/11 13:58:01;;;;;;;;;;;22.70;99.90;;;;;;6316403;28;20011;-72
2021/08/11 14:01:03;;;;;;;;;;;22.80;99.90;;;;;;6303306;28;20029;-72
2021/08/11 14:04:05;;;;;;;;;;;22.80;99.90;;;;;;6312391;28;19952;-72
2021/08/11 14:07:07;;;;;;;;;;;22.80;99.90;;;;;;6311515;28;20461;-72
2021/08/11 14:10:09;;;;;;;;;;;22.80;99.90;;;;;;6311238;28;19976;-72
2021/08/11 14:13:10;;;;;;;;;;;22.80;99.90;;;;;;6315043;28;19999;-72
2021/08/11 14:16:12;;;;;;;;;;;22.90;99.90;;;;;;6316956;28;19988;-72
2021/08/11 14:19:13;;;;;;;;;;;23.00;99.90;;;;;;6304749;28;20024;-72
2021/08/11 14:22:15;;;;;;;;;;;23.00;99.90;;;;;;6311739;28;19972;-72
2021/08/11 14:25:17;;;;;;;;;;;23.00;99.90;;;;;;6316168;28;20327;-72
2021/08/11 14:28:19;;;;;;;;;;;23.00;99.90;;;;;;6309427;28;19976;-71
2021/08/11 14:31:22;;;;;;;;;;;23.10;99.90;;;;;;6310635;28;19972;-72
2021/08/11 14:34:24;;;;;;;;;;;23.10;99.90;;;;;;6302368;28;20035;-73
2021/08/11 14:37:26;;;;;;;;;;;23.10;99.90;;;;;;6301764;28;20039;-72
2021/08/11 14:40:27;;;;;;;;;;;23.10;99.90;;;;;;6297561;28;20363;-72
2021/08/11 14:43:29;;;;;;;;;;;23.10;99.90;;;;;;6297932;28;20363;-71
2021/08/11 14:46:31;;;;;;;;;;;23.10;99.90;;;;;;6302995;28;21477;-72
2021/08/11 14:49:33;;;;;;;;;;;23.20;99.90;;;;;;6298921;28;19989;-72
2021/08/11 14:52:35;;;;;;;;;;;23.20;99.90;;;;;;6301065;28;20391;-72
2021/08/11 14:55:37;;;;;;;;;;;23.20;99.90;;;;;;6328175;27;19972;-72
2021/08/11 14:58:40;;;;;;;;;;;23.20;99.90;;;;;;6304115;28;19996;-72
2021/08/11 15:01:41;;;;;;;;;;;23.20;99.90;;;;;;6301327;28;19980;-72
2021/08/11 15:04:43;;;;;;;;;;;23.20;99.90;;;;;;6298964;28;20351;-71
2021/08/11 15:07:45;;;;;;;;;;;23.10;99.90;;;;;;6304191;28;19984;-73
2021/08/11 15:10:47;;;;;;;;;;;23.10;99.90;;;;;;6304404;28;19972;-72
2021/08/11 15:13:48;;;;;;;;;;;23.20;99.90;;;;;;6308128;28;20050;-71
2021/08/11 15:16:50;;;;;;;;;;;23.20;99.90;;;;;;6302046;28;19972;-72
2021/08/11 15:19:51;;;;;;;;;;;23.30;99.90;;;;;;6292743;28;20096;-72
2021/08/11 15:22:53;;;;;;;;;;;23.40;99.90;;;;;;6293854;28;20400;-72
2021/08/11 15:25:55;;;;;;;;;;;23.50;99.90;;;;;;6298897;28;20446;-72
2021/08/11 15:28:56;;;;;;;;;;;23.50;99.90;;;;;;6290247;28;19976;-72
2021/08/11 15:31:58;;;;;;;;;;;23.60;99.90;;;;;;6288413;28;20350;-72
2021/08/11 15:35:00;;;;;;;;;;;23.70;99.90;;;;;;6288243;28;19973;-72
2021/08/11 15:38:02;;;;;;;;;;;23.90;99.90;;;;;;6291522;28;20505;-72
2021/08/11 15:41:04;;;;;;;;;;;24.00;99.90;;;;;;6289259;28;19990;-72
2021/08/11 15:44:06;;;;;;;;;;;24.20;99.90;;;;;;6287773;28;19980;-72
2021/08/11 15:47:09;;;;;;;;;;;24.30;99.90;;;;;;6288357;28;20424;-72
2021/08/11 15:50:11;;;;;;;;;;;24.40;99.90;;;;;;6288107;28;19972;-72
2021/08/11 15:53:13;;;;;;;;;;;24.50;99.90;;;;;;6289506;28;19972;-72
2021/08/11 15:56:14;;;;;;;;;;;24.50;99.90;;;;;;6288937;28;19980;-72
2021/08/11 15:59:16;;;;;;;;;;;24.60;99.90;;;;;;6290491;28;20011;-72
2021/08/11 16:02:18;;;;;;;;;;;24.60;99.90;;;;;;6286444;28;19981;-71
2021/08/11 16:05:20;;;;;;;;;;;24.60;99.90;;;;;;6299473;28;19979;-72
2021/08/11 16:08:22;;;;;;;;;;;24.50;99.90;;;;;;6280749;28;19992;-72
2021/08/11 16:11:23;;;;;;;;;;;24.50;99.90;;;;;;6320298;27;19983;-72
2021/08/11 16:14:25;;;;;;;;;;;24.40;99.90;;;;;;6284978;28;20363;-72
2021/08/11 16:17:27;;;;;;;;;;;24.40;99.90;;;;;;6288743;28;19984;-73
2021/08/11 16:20:29;;;;;;;;;;;24.40;99.90;;;;;;6283443;28;20469;-72
2021/08/11 16:23:31;;;;;;;;;;;24.50;99.90;;;;;;6287705;28;19988;-72
2021/08/11 16:26:37;;;;;;;;;;;24.50;99.90;;;;;;6286843;28;19976;-72
2021/08/11 16:29:38;;;;;;;;;;;24.70;99.90;;;;;;6284287;28;19976;-72
2021/08/11 16:32:40;;;;;;;;;;;24.80;99.90;;;;;;6319933;27;20021;-73
2021/08/11 16:35:42;;;;;;;;;;;24.90;99.90;;;;;;6291694;28;20010;-72
2021/08/11 16:38:44;;;;;;;;;;;25.00;99.90;;;;;;6290670;28;20050;-72
2021/08/11 16:41:46;;;;;;;;;;;25.10;99.90;;;;;;6291979;28;20041;-73
2021/08/11 16:44:48;;;;;;;;;;;25.20;99.90;;;;;;6292699;28;19972;-73
2021/08/11 16:47:50;;;;;;;;;;;25.20;99.90;;;;;;6293612;28;19995;-72
2021/08/11 16:50:55;;;;;;;;;;;25.40;99.90;;;;;;6294189;28;19979;-72
2021/08/11 16:53:57;;;;;;;;;;;25.50;99.90;;;;;;6296935;28;19976;-72
2021/08/11 16:56:58;;;;;;;;;;;25.50;99.90;;;;;;6298885;28;20645;-72
2021/08/11 17:00:00;;;;;;;;;;;25.50;99.90;;;;;;6290113;28;19996;-73
2021/08/11 17:03:02;;;;;;;;;;;25.60;99.90;;;;;;6292006;28;20333;-73
2021/08/11 17:06:04;;;;;;;;;;;25.60;99.90;;;;;;6295449;28;20054;-73
2021/08/11 17:09:05;;;;;;;;;;;25.60;99.90;;;;;;6320259;27;19976;-72
2021/08/11 17:12:07;;;;;;;;;;;25.50;99.90;;;;;;6294169;28;20335;-72
2021/08/11 17:15:09;;;;;;;;;;;25.40;99.90;;;;;;6295646;28;19979;-72
2021/08/11 17:18:11;;;;;;;;;;;25.30;99.90;;;;;;6290107;28;19996;-73
2021/08/11 17:21:13;;;;;;;;;;;25.20;99.90;;;;;;6294931;28;20474;-72
2021/08/11 17:24:14;;;;;;;;;;;25.10;99.90;;;;;;6295176;28;20025;-72
2021/08/11 17:27:16;;;;;;;;;;;25.00;99.90;;;;;;6290755;28;19988;-73
2021/08/11 17:30:18;;;;;;;;;;;24.90;99.90;;;;;;6290822;28;19976;-72
2021/08/11 17:33:19;;;;;;;;;;;24.80;99.90;;;;;;6291760;28;19985;-73
2021/08/11 17:36:21;;;;;;;;;;;24.70;99.90;;;;;;6290455;28;20362;-72
2021/08/11 17:39:23;;;;;;;;;;;24.60;99.90;;;;;;6290874;28;20078;-72
2021/08/11 17:42:25;;;;;;;;;;;24.50;99.90;;;;;;6289372;28;19982;-72
2021/08/11 17:45:26;;;;;;;;;;;24.40;99.90;;;;;;6290310;28;20003;-72
2021/08/11 17:48:29;;;;;;;;;;;24.40;99.90;;;;;;6287649;28;20348;-72